Pagrindinis puslapis
METAR-TAF:

METAR-TAF

Oro uostai :

Heringsdorf, Vokietija

platuma: 53-53N, ilguma: 014-09E, Aukštis: 28 m

Dabartinis oras

Ataskaita buvo paskelbta 4 valandos ir 13 minutes, ne 15:50 UTC
Vėjas 10 kt iš Pietų
Temperatūra 10°C
Drėgmė 87%
Slėgis 1007 hPa
Matomumas 10 km arba daugiau
Išsisklaidę debesys ne aukštis 4600 ft

METAR: EDAH 271550Z 18010KT 9999 SCT046 10/08 Q1007

Laikas: 21:03 (20:03 UTC)

Prognozė

Ataskaita buvo paskelbta 6 valandos ir 3 minutes, ne 14:00 UTC
Prognozė galioja nuo 27 metu 15 UTC su 27 metu 24 UTC
Vėjas 10 kt iš Pietų/Pietvakarių
Matomumas 10 km arba daugiau
Išsisklaidę debesys ne aukštis 2000 ft

TAF: EDAH 271400Z 2715/2724 20010KT 9999 SCT020

Orai ataskaitas ir orų prognozės (METAR, TAF).

turimą stotys yra geltonos ir raudonos taškus žemėlapyje.

Perkelti pele per norėdami pamatyti stoties vardą.

Tada spustelėkite, norėdami matyti oro stebėjimo ir prognozės.

Norėdami pakeisti žemėlapį: spustelėkite ant žalios mygtukų su juodo kryžiaus žemyn,; žalią mygtuką su brūkšneliu, jei norite nutolinti; arba žalių rodyklių gretimoms žemėlapius.


METAR-TAF: